Terminal Aerodrome Forecast
Issued by NWS

Home | Current Version | Previous Version | Text Only | Print | Product List | Glossary On
Versions: 1 2 3 4 5 6 7 8 9 10 11 12 13 14 15 16 17 18
000
FTAK31 PANC 090400 AAC
TAFAIL
TAF AMD
PAIL 090400Z 0904/0924 36012KT P6SM SCT006
     FM090600 35010KT P6SM FEW150 SCT250
     FM091000 36010KT P6SM SCT090 BKN150
     FM091500 36010KT P6SM VCSH BKN030 OVC050
     FM091700 01010KT P6SM -SHSN BKN035 OVC050=

USA.gov is the U.S. government's official web portal to all federal, state and local government web resources and services.